createdAt,value
2019-02-07T00:02:24.969Z,20.67
2019-02-07T00:07:24.781Z,20.00
2019-02-07T00:12:24.343Z,23.67
2019-02-07T00:17:23.870Z,14.27
2019-02-07T00:22:23.829Z,15.37
2019-02-07T00:27:23.370Z,19.67
2019-02-07T00:32:22.894Z,16.37
2019-02-07T00:37:22.421Z,25.00
2019-02-07T00:42:21.948Z,15.97
2019-02-07T00:47:21.599Z,18.97
2019-02-07T00:52:21.126Z,12.97
2019-02-07T00:57:20.733Z,10.03
2019-02-07T01:02:20.265Z,16.97
2019-02-07T01:07:19.813Z,12.80
2019-02-07T01:12:19.346Z,17.77
2019-02-07T01:17:18.949Z,14.63
2019-02-07T01:22:18.484Z,15.43
2019-02-07T01:27:18.017Z,14.30
2019-02-07T01:32:17.732Z,20.70
2019-02-07T01:37:17.270Z,17.90
2019-02-07T01:42:16.805Z,19.67
2019-02-07T01:47:16.819Z,12.77
2019-02-07T01:52:16.357Z,14.70
2019-02-07T01:57:15.885Z,13.90
2019-02-07T02:02:15.693Z,20.57
2019-02-07T02:07:15.233Z,19.80
2019-02-07T02:12:15.939Z,15.13
2019-02-07T02:17:15.481Z,19.03
2019-02-07T02:22:15.014Z,16.53
2019-02-07T02:27:14.556Z,14.80
2019-02-07T02:32:14.100Z,19.07
2019-02-07T02:37:13.634Z,12.80
2019-02-07T02:42:13.161Z,15.80
2019-02-07T02:47:12.710Z,18.00
2019-02-07T02:52:12.421Z,17.30
2019-02-07T02:57:11.958Z,18.33
2019-02-07T03:02:37.560Z,18.43
2019-02-07T03:07:59.090Z,15.73
2019-02-07T03:13:16.845Z,17.87
2019-02-07T03:18:38.594Z,13.83
2019-02-07T03:24:00.495Z,17.47
2019-02-07T03:29:11.178Z,15.77
2019-02-07T03:34:27.828Z,15.83
2019-02-07T03:39:40.625Z,12.37
2019-02-07T03:44:48.768Z,12.57
2019-02-07T03:50:01.696Z,15.53
2019-02-07T03:55:13.717Z,17.53
2019-02-07T04:00:26.743Z,17.57
2019-02-07T04:05:36.318Z,18.30
2019-02-07T04:10:54.549Z,16.07
2019-02-07T04:16:15.483Z,14.90
2019-02-07T04:21:25.656Z,14.50
2019-02-07T04:26:50.563Z,15.33
2019-02-07T04:32:06.506Z,13.43
2019-02-07T04:37:18.019Z,17.20
2019-02-07T04:42:29.179Z,13.83
2019-02-07T04:47:46.733Z,12.00
2019-02-07T04:53:08.456Z,12.37
2019-02-07T04:58:26.311Z,14.50
2019-02-07T05:03:35.657Z,17.33
2019-02-07T05:08:42.454Z,16.20
2019-02-07T05:13:55.599Z,17.10
2019-02-07T05:19:20.108Z,12.90
2019-02-07T05:24:48.968Z,13.90
2019-02-07T05:30:00.230Z,13.13
2019-02-07T05:35:17.830Z,8.03
2019-02-07T05:40:24.846Z,12.90
2019-02-07T05:45:43.461Z,12.10
2019-02-07T05:51:01.368Z,10.70
2019-02-07T05:56:10.531Z,15.00
2019-02-07T06:01:28.980Z,18.07
2019-02-07T06:06:52.079Z,12.43
2019-02-07T06:12:10.862Z,11.63
2019-02-07T06:17:28.847Z,10.23
2019-02-07T06:22:50.534Z,15.30
2019-02-07T06:28:02.323Z,17.57
2019-02-07T06:33:15.090Z,13.60
2019-02-07T06:38:24.718Z,12.60
2019-02-07T06:43:39.390Z,15.17
2019-02-07T06:49:00.101Z,15.10
2019-02-07T06:54:17.476Z,19.43
2019-02-07T06:59:27.825Z,15.47
2019-02-07T07:04:45.253Z,15.50
2019-02-07T07:10:08.750Z,19.17
2019-02-07T07:15:16.930Z,15.70
2019-02-07T07:20:31.825Z,18.17
2019-02-07T07:25:49.121Z,15.37
2019-02-07T07:31:13.494Z,16.07
2019-02-07T07:36:31.233Z,17.40
2019-02-07T07:41:58.065Z,18.40
2019-02-07T07:47:10.176Z,18.60
2019-02-07T07:52:31.241Z,27.43
2019-02-07T07:57:43.075Z,17.77
2019-02-07T08:03:01.213Z,25.63
2019-02-07T08:08:18.518Z,19.00
2019-02-07T08:13:46.538Z,15.93
2019-02-07T08:19:14.630Z,16.30
2019-02-07T08:24:32.151Z,26.90
2019-02-07T08:29:51.869Z,22.20
2019-02-07T08:35:00.718Z,20.47
2019-02-07T08:40:18.816Z,15.33
2019-02-07T08:45:44.739Z,20.30
2019-02-07T08:51:19.870Z,23.97
2019-02-07T08:56:44.058Z,20.83
2019-02-07T09:01:58.951Z,23.50
2019-02-07T09:07:17.609Z,22.80
2019-02-07T09:12:25.231Z,19.73
2019-02-07T09:17:42.555Z,32.63
2019-02-07T09:22:58.679Z,24.37
2019-02-07T09:28:15.087Z,24.40
2019-02-07T09:33:33.106Z,21.10
2019-02-07T09:38:41.794Z,17.33
2019-02-07T09:43:59.466Z,22.70
2019-02-07T09:49:12.574Z,17.23
2019-02-07T09:54:37.174Z,26.90
2019-02-07T09:59:52.117Z,18.60
2019-02-07T10:05:02.023Z,25.10
2019-02-07T10:10:24.183Z,17.17
2019-02-07T10:15:41.006Z,21.27
2019-02-07T10:20:55.681Z,23.47
2019-02-07T10:26:06.564Z,19.30
2019-02-07T10:31:18.076Z,16.70
2019-02-07T10:36:39.874Z,20.30
2019-02-07T10:41:56.530Z,16.43
2019-02-07T10:47:12.215Z,17.13
2019-02-07T10:52:40.291Z,21.20
2019-02-07T10:58:02.279Z,22.73
2019-02-07T11:03:12.443Z,21.63
2019-02-07T11:08:37.443Z,19.50
2019-02-07T11:13:52.530Z,13.07
2019-02-07T11:19:07.973Z,13.50
2019-02-07T11:24:26.694Z,12.50
2019-02-07T11:29:48.497Z,12.70
2019-02-07T11:35:32.095Z,12.90
2019-02-07T11:41:02.894Z,13.40
2019-02-07T11:46:16.447Z,12.80
2019-02-07T11:51:34.105Z,12.93
2019-02-07T11:56:52.634Z,10.80
2019-02-07T12:02:14.673Z,11.87
2019-02-07T12:07:33.838Z,12.10
2019-02-07T12:12:56.429Z,15.60
2019-02-07T12:18:33.092Z,9.30
2019-02-07T12:24:00.088Z,12.43
2019-02-07T12:29:17.669Z,9.20
2019-02-07T12:34:24.618Z,15.90
2019-02-07T12:39:33.765Z,12.73
2019-02-07T12:44:51.127Z,13.80
2019-02-07T12:50:03.630Z,14.90
2019-02-07T12:55:09.306Z,13.90
2019-02-07T13:00:43.027Z,17.23
2019-02-07T13:06:11.367Z,19.07
2019-02-07T13:11:22.622Z,16.73
2019-02-07T13:16:39.966Z,13.07
2019-02-07T13:21:59.695Z,14.77
2019-02-07T13:27:17.303Z,16.60
2019-02-07T13:32:35.189Z,14.13
2019-02-07T13:37:47.363Z,17.37
2019-02-07T13:42:54.657Z,15.20
2019-02-07T13:48:12.803Z,18.57
2019-02-07T13:53:24.013Z,16.70
2019-02-07T13:58:29.687Z,18.00
2019-02-07T14:03:41.282Z,16.90
2019-02-07T14:09:02.754Z,20.67
2019-02-07T14:14:22.222Z,13.03
2019-02-07T14:19:33.729Z,15.70
2019-02-07T14:24:47.345Z,15.83
2019-02-07T14:30:04.911Z,13.07
2019-02-07T14:35:31.810Z,11.83
2019-02-07T14:41:02.908Z,13.97
2019-02-07T14:46:20.491Z,15.70
2019-02-07T14:51:20.103Z,12.10
2019-02-07T14:56:19.641Z,13.30
2019-02-07T15:01:19.554Z,17.77
2019-02-07T15:06:19.522Z,12.50
2019-02-07T15:11:19.059Z,17.80
2019-02-07T15:16:18.992Z,12.97
2019-02-07T15:21:18.521Z,10.83
2019-02-07T15:26:18.075Z,14.20
2019-02-07T15:31:17.819Z,20.83
2019-02-07T15:36:17.596Z,14.53
2019-02-07T15:41:17.278Z,16.13
2019-02-07T15:46:17.180Z,11.13
2019-02-07T15:51:17.168Z,14.60
2019-02-07T15:56:16.716Z,11.23
2019-02-07T16:01:24.353Z,17.83
2019-02-07T16:06:23.893Z,16.87
2019-02-07T16:11:23.435Z,17.63
2019-02-07T16:16:23.110Z,10.70
2019-02-07T16:21:22.645Z,18.33
2019-02-07T16:26:22.558Z,18.30
2019-02-07T16:31:22.102Z,16.10
2019-02-07T16:36:22.002Z,14.90
2019-02-07T16:41:22.000Z,16.23
2019-02-07T16:46:22.440Z,15.70
2019-02-07T16:51:22.266Z,21.23
2019-02-07T16:56:21.838Z,15.00
2019-02-07T17:01:21.476Z,19.20
2019-02-07T17:06:21.254Z,18.67
2019-02-07T17:11:21.160Z,18.23
2019-02-07T17:16:22.695Z,17.67
2019-02-07T17:21:22.482Z,15.87
2019-02-07T17:26:22.094Z,20.57
2019-02-07T17:31:21.622Z,21.67
2019-02-07T17:36:21.180Z,19.00
2019-02-07T17:41:20.706Z,21.50
2019-02-07T17:46:20.233Z,20.63
2019-02-07T17:51:23.316Z,19.67
2019-02-07T17:56:21.066Z,19.03
2019-02-07T18:01:20.613Z,24.00
2019-02-07T18:06:20.421Z,21.37
2019-02-07T18:11:20.026Z,25.00
2019-02-07T18:16:19.613Z,32.40
2019-02-07T18:21:19.227Z,24.73
2019-02-07T18:26:18.779Z,21.93
2019-02-07T18:31:18.322Z,30.10
2019-02-07T18:36:17.854Z,20.83
2019-02-07T18:41:17.385Z,24.67
2019-02-07T18:46:16.919Z,20.30
2019-02-07T18:51:16.832Z,25.57
2019-02-07T18:56:19.035Z,27.33
2019-02-07T19:01:18.673Z,24.70
2019-02-07T19:06:18.663Z,23.23
2019-02-07T19:11:18.210Z,31.37
2019-02-07T19:16:18.809Z,24.03
2019-02-07T19:21:18.572Z,21.67
2019-02-07T19:26:18.187Z,25.10
2019-02-07T19:31:17.800Z,32.50
2019-02-07T19:36:17.659Z,41.47
2019-02-07T19:41:17.866Z,32.37
2019-02-07T19:46:17.581Z,29.23
2019-02-07T19:51:17.170Z,25.63
2019-02-07T19:56:16.710Z,29.00
2019-02-07T20:01:16.249Z,30.00
2019-02-07T20:06:15.901Z,29.70
2019-02-07T20:11:15.628Z,32.30
2019-02-07T20:16:15.583Z,25.83
2019-02-07T20:21:15.380Z,29.97
2019-02-07T20:26:14.934Z,31.87
2019-02-07T20:31:14.491Z,30.87
2019-02-07T20:36:14.094Z,32.27
2019-02-07T20:41:13.886Z,33.93
2019-02-07T20:46:13.420Z,30.67
2019-02-07T20:51:13.134Z,37.07
2019-02-07T20:56:12.661Z,28.47
2019-02-07T21:01:12.199Z,28.40
2019-02-07T21:06:11.811Z,33.30
2019-02-07T21:11:12.415Z,34.33
2019-02-07T21:16:13.050Z,32.50
2019-02-07T21:21:12.626Z,28.00
2019-02-07T21:26:12.354Z,33.63
2019-02-07T21:31:11.922Z,34.10
2019-02-07T21:36:11.666Z,32.93
2019-02-07T21:41:11.279Z,30.93
2019-02-07T21:46:10.894Z,28.57
2019-02-07T21:51:10.618Z,32.13
2019-02-07T21:56:10.693Z,35.80
2019-02-07T22:01:10.234Z,35.83
2019-02-07T22:06:09.946Z,38.60
2019-02-07T22:11:09.846Z,32.87
2019-02-07T22:16:09.391Z,30.47
2019-02-07T22:21:09.007Z,36.17
2019-02-07T22:26:08.743Z,33.80
2019-02-07T22:31:08.274Z,29.60
2019-02-07T22:36:07.812Z,34.00
2019-02-07T22:41:07.359Z,31.23
2019-02-07T22:46:06.997Z,30.70
2019-02-07T22:51:06.594Z,40.83
2019-02-07T22:56:06.139Z,33.60
2019-02-07T23:01:43.190Z,27.00
2019-02-07T23:06:42.976Z,31.10
2019-02-07T23:11:43.491Z,40.50
2019-02-07T23:16:43.634Z,43.47
2019-02-07T23:21:43.251Z,35.23
2019-02-07T23:26:43.766Z,32.40
2019-02-07T23:31:44.377Z,33.53
2019-02-07T23:36:44.060Z,33.30
2019-02-07T23:41:44.813Z,29.90
2019-02-07T23:46:44.397Z,34.90
2019-02-07T23:51:43.948Z,31.93
2019-02-07T23:56:43.485Z,36.13
